Terminal Aerodrome Forecast
Issued by NWS

Home | Current Version | Previous Version | Text Only | Print | Product List | Glossary On
Versions: 1 2 3 4 5 6 7 8 9 10 11 12
396
FTUS46 KSTO 222345
TAFRBL
TAF
KRBL 222345Z 2300/2324 15012G22KT P6SM -SHRA BKN050
     FM230100 16012KT 6SM -SHRA OVC025
     FM230400 17006KT P6SM OVC025
      TEMPO 2312/2315 6SM -SHRA OVC015=

USA.gov is the U.S. government's official web portal to all federal, state and local government web resources and services.